sensor_id;sensor_type;location;lat;lon;timestamp;pressure;altitude;pressure_sealevel;temperature;humidity
48027;BME280;50714;49.208;5.364;2022-09-01T00:02:31;99591.44;;;20.86;53.02
48027;BME280;50714;49.208;5.364;2022-09-01T00:12:31;99586.38;;;20.63;53.47
48027;BME280;50714;49.208;5.364;2022-09-01T00:22:31;99586.59;;;20.46;53.72
48027;BME280;50714;49.208;5.364;2022-09-01T00:32:32;99588.66;;;20.34;53.90
48027;BME280;50714;49.208;5.364;2022-09-01T00:42:33;99591.91;;;20.26;54.01
48027;BME280;50714;49.208;5.364;2022-09-01T00:52:41;99591.22;;;20.08;55.17
48027;BME280;50714;49.208;5.364;2022-09-01T01:02:44;99583.69;;;19.89;54.31
48027;BME280;50714;49.208;5.364;2022-09-01T01:12:44;99585.34;;;19.90;54.50
48027;BME280;50714;49.208;5.364;2022-09-01T01:33:06;99573.59;;;19.94;54.30
48027;BME280;50714;49.208;5.364;2022-09-01T01:43:07;99570.66;;;20.01;54.45
48027;BME280;50714;49.208;5.364;2022-09-01T01:53:08;99568.72;;;20.01;54.41
48027;BME280;50714;49.208;5.364;2022-09-01T02:03:09;99579.22;;;19.78;54.45
48027;BME280;50714;49.208;5.364;2022-09-01T02:13:14;99580.53;;;19.70;54.84
48027;BME280;50714;49.208;5.364;2022-09-01T02:23:21;99572.72;;;19.52;54.85
48027;BME280;50714;49.208;5.364;2022-09-01T02:33:25;99578.91;;;19.47;55.01
48027;BME280;50714;49.208;5.364;2022-09-01T02:43:28;99574.34;;;19.53;54.97
48027;BME280;50714;49.208;5.364;2022-09-01T02:53:31;99567.28;;;19.57;54.56
48027;BME280;50714;49.208;5.364;2022-09-01T03:03:34;99571.63;;;19.53;54.54
48027;BME280;50714;49.208;5.364;2022-09-01T03:13:35;99567.16;;;19.47;55.12
48027;BME280;50714;49.208;5.364;2022-09-01T03:23:36;99563.78;;;19.39;54.79
48027;BME280;50714;49.208;5.364;2022-09-01T03:33:37;99568.91;;;19.31;54.93
48027;BME280;50714;49.208;5.364;2022-09-01T03:43:37;99564.59;;;19.35;54.85
48027;BME280;50714;49.208;5.364;2022-09-01T03:53:38;99567.59;;;19.38;54.83
48027;BME280;50714;49.208;5.364;2022-09-01T04:03:39;99557.47;;;19.39;54.84
48027;BME280;50714;49.208;5.364;2022-09-01T04:13:40;99556.66;;;19.38;54.76
48027;BME280;50714;49.208;5.364;2022-09-01T04:23:41;99563.50;;;19.36;54.57
48027;BME280;50714;49.208;5.364;2022-09-01T04:33:42;99563.38;;;19.26;54.36
48027;BME280;50714;49.208;5.364;2022-09-01T04:43:47;99560.34;;;19.22;54.63
48027;BME280;50714;49.208;5.364;2022-09-01T04:53:48;99564.66;;;19.13;54.71
48027;BME280;50714;49.208;5.364;2022-09-01T05:03:49;99564.34;;;18.88;54.85
48027;BME280;50714;49.208;5.364;2022-09-01T05:13:55;99564.91;;;18.68;57.22
48027;BME280;50714;49.208;5.364;2022-09-01T05:23:58;99568.19;;;18.48;55.73
48027;BME280;50714;49.208;5.364;2022-09-01T05:34:00;99570.50;;;18.56;55.76
48027;BME280;50714;49.208;5.364;2022-09-01T05:44:03;99572.34;;;18.72;55.87
48027;BME280;50714;49.208;5.364;2022-09-01T05:54:08;99570.38;;;18.90;55.86
48027;BME280;50714;49.208;5.364;2022-09-01T06:04:09;99579.50;;;19.22;55.19
48027;BME280;50714;49.208;5.364;2022-09-01T06:14:10;99585.94;;;19.60;55.07
48027;BME280;50714;49.208;5.364;2022-09-01T06:24:10;99586.44;;;20.26;55.01
48027;BME280;50714;49.208;5.364;2022-09-01T06:34:11;99589.56;;;21.07;53.68
48027;BME280;50714;49.208;5.364;2022-09-01T06:44:17;99588.63;;;21.59;53.00
48027;BME280;50714;49.208;5.364;2022-09-01T06:54:21;99584.81;;;22.10;52.14
48027;BME280;50714;49.208;5.364;2022-09-01T07:04:22;99591.63;;;22.43;50.86
48027;BME280;50714;49.208;5.364;2022-09-01T07:14:22;99604.28;;;22.34;50.10
48027;BME280;50714;49.208;5.364;2022-09-01T07:24:22;99611.88;;;22.73;49.79
48027;BME280;50714;49.208;5.364;2022-09-01T07:34:25;99623.44;;;23.39;48.57
48027;BME280;50714;49.208;5.364;2022-09-01T07:44:25;99622.03;;;23.86;47.93
48027;BME280;50714;49.208;5.364;2022-09-01T07:54:27;99621.31;;;24.67;45.01
48027;BME280;50714;49.208;5.364;2022-09-01T08:04:29;99617.31;;;25.45;46.68
48027;BME280;50714;49.208;5.364;2022-09-01T08:14:30;99610.78;;;26.71;45.31
48027;BME280;50714;49.208;5.364;2022-09-01T08:24:31;99609.53;;;29.88;43.22
48027;BME280;50714;49.208;5.364;2022-09-01T08:34:32;99608.28;;;32.42;38.41
48027;BME280;50714;49.208;5.364;2022-09-01T08:44:49;99613.38;;;33.21;32.20
48027;BME280;50714;49.208;5.364;2022-09-01T08:55:01;99617.78;;;33.99;31.45
48027;BME280;50714;49.208;5.364;2022-09-01T09:15:31;99605.38;;;34.72;30.80
48027;BME280;50714;49.208;5.364;2022-09-01T09:25:32;99608.88;;;35.32;31.98
48027;BME280;50714;49.208;5.364;2022-09-01T09:35:44;99588.97;;;35.75;28.74
48027;BME280;50714;49.208;5.364;2022-09-01T09:46:34;99590.22;;;35.97;30.48
48027;BME280;50714;49.208;5.364;2022-09-01T09:56:22;99570.50;;;37.04;29.48
48027;BME280;50714;49.208;5.364;2022-09-01T10:06:47;99555.34;;;37.69;25.50
48027;BME280;50714;49.208;5.364;2022-09-01T10:16:52;99556.97;;;38.07;25.93
48027;BME280;50714;49.208;5.364;2022-09-01T10:27:35;99558.84;;;39.21;20.85
48027;BME280;50714;49.208;5.364;2022-09-01T10:37:38;99555.84;;;39.00;24.71
48027;BME280;50714;49.208;5.364;2022-09-01T10:47:39;99562.13;;;39.34;23.84
48027;BME280;50714;49.208;5.364;2022-09-01T10:57:43;99546.25;;;39.87;23.03
48027;BME280;50714;49.208;5.364;2022-09-01T11:07:47;99554.91;;;40.76;21.88
48027;BME280;50714;49.208;5.364;2022-09-01T11:37:55;99519.22;;;42.19;17.74
48027;BME280;50714;49.208;5.364;2022-09-01T11:48:15;99517.53;;;41.60;19.53
48027;BME280;50714;49.208;5.364;2022-09-01T12:08:51;99493.31;;;39.74;18.38
48027;BME280;50714;49.208;5.364;2022-09-01T12:18:59;99492.44;;;37.61;20.04
48027;BME280;50714;49.208;5.364;2022-09-01T12:29:03;99483.66;;;35.27;22.49
48027;BME280;50714;49.208;5.364;2022-09-01T12:39:24;99483.53;;;34.06;22.89
48027;BME280;50714;49.208;5.364;2022-09-01T12:59:35;99465.13;;;31.75;24.91
48027;BME280;50714;49.208;5.364;2022-09-01T13:09:35;99452.81;;;31.23;25.38
48027;BME280;50714;49.208;5.364;2022-09-01T13:19:37;99441.28;;;31.12;25.86
48027;BME280;50714;49.208;5.364;2022-09-01T13:29:38;99444.72;;;31.09;26.21
48027;BME280;50714;49.208;5.364;2022-09-01T13:39:38;99423.38;;;30.42;26.57
48027;BME280;50714;49.208;5.364;2022-09-01T13:49:39;99427.47;;;30.06;27.24
48027;BME280;50714;49.208;5.364;2022-09-01T13:59:39;99414.25;;;29.95;27.37
48027;BME280;50714;49.208;5.364;2022-09-01T14:09:40;99401.69;;;29.80;27.53
48027;BME280;50714;49.208;5.364;2022-09-01T14:19:41;99404.66;;;29.75;27.34
48027;BME280;50714;49.208;5.364;2022-09-01T14:29:41;99405.72;;;29.44;28.21
48027;BME280;50714;49.208;5.364;2022-09-01T14:39:41;99396.19;;;29.54;28.14
48027;BME280;50714;49.208;5.364;2022-09-01T14:49:42;99390.31;;;29.38;27.76
48027;BME280;50714;49.208;5.364;2022-09-01T14:59:43;99390.22;;;28.83;28.75
48027;BME280;50714;49.208;5.364;2022-09-01T15:09:43;99389.38;;;28.82;28.77
48027;BME280;50714;49.208;5.364;2022-09-01T15:19:43;99383.81;;;28.74;29.09
48027;BME280;50714;49.208;5.364;2022-09-01T15:29:44;99375.50;;;28.91;29.57
48027;BME280;50714;49.208;5.364;2022-09-01T15:39:46;99369.13;;;28.91;29.43
48027;BME280;50714;49.208;5.364;2022-09-01T15:49:47;99358.19;;;28.77;29.45
48027;BME280;50714;49.208;5.364;2022-09-01T15:59:47;99356.50;;;28.59;29.56
48027;BME280;50714;49.208;5.364;2022-09-01T16:09:47;99357.31;;;28.42;29.97
48027;BME280;50714;49.208;5.364;2022-09-01T16:19:52;99344.25;;;28.25;29.91
48027;BME280;50714;49.208;5.364;2022-09-01T16:30:05;99333.28;;;28.20;30.63
48027;BME280;50714;49.208;5.364;2022-09-01T16:40:20;99326.41;;;28.09;30.57
48027;BME280;50714;49.208;5.364;2022-09-01T16:50:47;99325.53;;;28.00;31.15
48027;BME280;50714;49.208;5.364;2022-09-01T17:00:57;99318.16;;;27.78;30.49
48027;BME280;50714;49.208;5.364;2022-09-01T17:11:15;99326.81;;;27.54;31.52
48027;BME280;50714;49.208;5.364;2022-09-01T17:42:20;99324.59;;;27.03;33.41
48027;BME280;50714;49.208;5.364;2022-09-01T18:13:29;99331.50;;;26.20;34.98
48027;BME280;50714;49.208;5.364;2022-09-01T18:23:42;99335.31;;;25.96;34.88
48027;BME280;50714;49.208;5.364;2022-09-01T19:14:58;99358.88;;;24.82;37.35
48027;BME280;50714;49.208;5.364;2022-09-01T19:25:08;99353.69;;;24.62;36.76
48027;BME280;50714;49.208;5.364;2022-09-01T19:35:28;99365.81;;;24.24;36.72
48027;BME280;50714;49.208;5.364;2022-09-01T19:45:46;99365.19;;;24.08;38.37
48027;BME280;50714;49.208;5.364;2022-09-01T19:56:00;99363.66;;;23.97;38.40
48027;BME280;50714;49.208;5.364;2022-09-01T20:06:17;99359.19;;;23.82;38.64
48027;BME280;50714;49.208;5.364;2022-09-01T20:16:31;99356.81;;;23.70;38.64
48027;BME280;50714;49.208;5.364;2022-09-01T20:26:40;99350.16;;;23.47;37.97
48027;BME280;50714;49.208;5.364;2022-09-01T20:36:46;99344.16;;;23.40;38.21
48027;BME280;50714;49.208;5.364;2022-09-01T20:46:50;99344.69;;;23.42;38.46
48027;BME280;50714;49.208;5.364;2022-09-01T21:07:25;99352.25;;;23.32;39.53
48027;BME280;50714;49.208;5.364;2022-09-01T21:17:43;99346.19;;;23.30;39.81
48027;BME280;50714;49.208;5.364;2022-09-01T21:27:53;99348.19;;;23.24;39.71
48027;BME280;50714;49.208;5.364;2022-09-01T21:37:54;99340.59;;;23.11;39.32
48027;BME280;50714;49.208;5.364;2022-09-01T21:47:55;99340.13;;;23.04;39.50
48027;BME280;50714;49.208;5.364;2022-09-01T21:57:55;99337.69;;;22.97;39.64
48027;BME280;50714;49.208;5.364;2022-09-01T22:07:56;99344.16;;;22.83;39.96
48027;BME280;50714;49.208;5.364;2022-09-01T22:17:57;99335.69;;;22.69;39.97
48027;BME280;50714;49.208;5.364;2022-09-01T22:28:03;99336.34;;;22.56;40.80
48027;BME280;50714;49.208;5.364;2022-09-01T22:38:03;99320.50;;;22.37;40.54
48027;BME280;50714;49.208;5.364;2022-09-01T22:48:04;99320.28;;;22.29;40.67
48027;BME280;50714;49.208;5.364;2022-09-01T22:58:05;99316.56;;;21.99;41.30
48027;BME280;50714;49.208;5.364;2022-09-01T23:08:06;99301.56;;;21.76;41.92
48027;BME280;50714;49.208;5.364;2022-09-01T23:18:07;99288.97;;;21.70;41.91
48027;BME280;50714;49.208;5.364;2022-09-01T23:28:07;99281.03;;;21.54;42.63
48027;BME280;50714;49.208;5.364;2022-09-01T23:38:09;99285.16;;;21.51;42.50
48027;BME280;50714;49.208;5.364;2022-09-01T23:48:12;99288.25;;;21.44;42.75
48027;BME280;50714;49.208;5.364;2022-09-01T23:58:14;99278.38;;;21.28;42.94
